sensor_id;sensor_type;location;lat;lon;timestamp;P1;durP1;ratioP1;P2;durP2;ratioP2
8893;SDS011;4483;48.622;9.230;2024-02-26T00:02:25;1.90;;;1.80;;
8893;SDS011;4483;48.622;9.230;2024-02-26T00:04:52;3.37;;;2.03;;
8893;SDS011;4483;48.622;9.230;2024-02-26T00:07:18;2.10;;;1.90;;
8893;SDS011;4483;48.622;9.230;2024-02-26T00:09:45;2.10;;;2.00;;
8893;SDS011;4483;48.622;9.230;2024-02-26T00:12:11;2.47;;;1.90;;
8893;SDS011;4483;48.622;9.230;2024-02-26T00:14:38;2.00;;;1.80;;
8893;SDS011;4483;48.622;9.230;2024-02-26T00:17:06;1.93;;;1.80;;
8893;SDS011;4483;48.622;9.230;2024-02-26T00:19:34;3.60;;;2.33;;
8893;SDS011;4483;48.622;9.230;2024-02-26T00:22:01;3.37;;;2.00;;
8893;SDS011;4483;48.622;9.230;2024-02-26T00:24:28;3.53;;;1.80;;
8893;SDS011;4483;48.622;9.230;2024-02-26T00:26:54;2.30;;;2.10;;
8893;SDS011;4483;48.622;9.230;2024-02-26T00:29:21;3.23;;;2.00;;
8893;SDS011;4483;48.622;9.230;2024-02-26T00:31:48;1.90;;;1.80;;
8893;SDS011;4483;48.622;9.230;2024-02-26T00:34:15;1.80;;;1.70;;
8893;SDS011;4483;48.622;9.230;2024-02-26T00:36:42;6.77;;;2.10;;
8893;SDS011;4483;48.622;9.230;2024-02-26T00:39:09;3.73;;;2.17;;
8893;SDS011;4483;48.622;9.230;2024-02-26T00:41:38;4.80;;;2.00;;
8893;SDS011;4483;48.622;9.230;2024-02-26T00:44:05;3.13;;;2.10;;
8893;SDS011;4483;48.622;9.230;2024-02-26T00:46:31;3.30;;;2.20;;
8893;SDS011;4483;48.622;9.230;2024-02-26T00:48:58;2.00;;;1.90;;
8893;SDS011;4483;48.622;9.230;2024-02-26T00:51:25;2.23;;;2.03;;
8893;SDS011;4483;48.622;9.230;2024-02-26T00:53:53;2.60;;;2.17;;
8893;SDS011;4483;48.622;9.230;2024-02-26T00:56:21;2.67;;;2.10;;
8893;SDS011;4483;48.622;9.230;2024-02-26T00:58:48;2.70;;;2.37;;
8893;SDS011;4483;48.622;9.230;2024-02-26T01:01:14;2.40;;;2.00;;
8893;SDS011;4483;48.622;9.230;2024-02-26T01:03:41;3.20;;;2.17;;
8893;SDS011;4483;48.622;9.230;2024-02-26T01:06:07;3.40;;;2.20;;
8893;SDS011;4483;48.622;9.230;2024-02-26T01:08:34;2.53;;;2.33;;
8893;SDS011;4483;48.622;9.230;2024-02-26T01:11:04;3.27;;;2.20;;
8893;SDS011;4483;48.622;9.230;2024-02-26T01:13:30;2.50;;;2.30;;
8893;SDS011;4483;48.622;9.230;2024-02-26T01:15:57;1.80;;;1.70;;
8893;SDS011;4483;48.622;9.230;2024-02-26T01:18:23;3.13;;;2.10;;
8893;SDS011;4483;48.622;9.230;2024-02-26T01:20:50;1.90;;;1.80;;
8893;SDS011;4483;48.622;9.230;2024-02-26T01:23:19;3.70;;;2.30;;
8893;SDS011;4483;48.622;9.230;2024-02-26T01:25:46;3.10;;;2.20;;
8893;SDS011;4483;48.622;9.230;2024-02-26T01:28:14;4.80;;;2.30;;
8893;SDS011;4483;48.622;9.230;2024-02-26T01:30:41;1.87;;;1.77;;
8893;SDS011;4483;48.622;9.230;2024-02-26T01:33:08;2.80;;;2.40;;
8893;SDS011;4483;48.622;9.230;2024-02-26T01:35:34;2.60;;;1.93;;
8893;SDS011;4483;48.622;9.230;2024-02-26T01:38:01;2.03;;;1.90;;
8893;SDS011;4483;48.622;9.230;2024-02-26T01:40:27;4.87;;;2.50;;
8893;SDS011;4483;48.622;9.230;2024-02-26T01:42:55;4.63;;;2.17;;
8893;SDS011;4483;48.622;9.230;2024-02-26T01:45:23;3.13;;;2.27;;
8893;SDS011;4483;48.622;9.230;2024-02-26T01:47:50;2.87;;;2.10;;
8893;SDS011;4483;48.622;9.230;2024-02-26T01:50:17;2.17;;;1.97;;
8893;SDS011;4483;48.622;9.230;2024-02-26T01:52:45;2.13;;;1.97;;
8893;SDS011;4483;48.622;9.230;2024-02-26T01:55:13;1.77;;;1.67;;
8893;SDS011;4483;48.622;9.230;2024-02-26T01:57:40;4.33;;;2.13;;
8893;SDS011;4483;48.622;9.230;2024-02-26T02:00:09;2.03;;;1.93;;
8893;SDS011;4483;48.622;9.230;2024-02-26T02:02:37;5.17;;;1.80;;
8893;SDS011;4483;48.622;9.230;2024-02-26T02:05:07;2.93;;;1.93;;
8893;SDS011;4483;48.622;9.230;2024-02-26T02:07:35;2.43;;;2.20;;
8893;SDS011;4483;48.622;9.230;2024-02-26T02:10:02;2.97;;;2.37;;
8893;SDS011;4483;48.622;9.230;2024-02-26T02:12:30;2.43;;;2.23;;
8893;SDS011;4483;48.622;9.230;2024-02-26T02:14:58;3.10;;;1.90;;
8893;SDS011;4483;48.622;9.230;2024-02-26T02:17:24;2.50;;;2.30;;
8893;SDS011;4483;48.622;9.230;2024-02-26T02:19:53;3.73;;;2.00;;
8893;SDS011;4483;48.622;9.230;2024-02-26T02:22:21;2.30;;;2.10;;
8893;SDS011;4483;48.622;9.230;2024-02-26T02:24:48;1.97;;;1.67;;
8893;SDS011;4483;48.622;9.230;2024-02-26T02:27:15;1.30;;;1.30;;
8893;SDS011;4483;48.622;9.230;2024-02-26T02:29:42;1.90;;;1.77;;
8893;SDS011;4483;48.622;9.230;2024-02-26T02:32:08;4.27;;;1.57;;
8893;SDS011;4483;48.622;9.230;2024-02-26T02:34:35;1.80;;;1.70;;
8893;SDS011;4483;48.622;9.230;2024-02-26T02:37:02;1.57;;;1.50;;
8893;SDS011;4483;48.622;9.230;2024-02-26T02:39:30;4.47;;;2.13;;
8893;SDS011;4483;48.622;9.230;2024-02-26T02:41:57;2.00;;;1.90;;
8893;SDS011;4483;48.622;9.230;2024-02-26T02:44:23;2.80;;;1.80;;
8893;SDS011;4483;48.622;9.230;2024-02-26T02:46:50;2.00;;;1.90;;
8893;SDS011;4483;48.622;9.230;2024-02-26T02:49:18;3.13;;;1.90;;
8893;SDS011;4483;48.622;9.230;2024-02-26T02:51:45;2.63;;;2.20;;
8893;SDS011;4483;48.622;9.230;2024-02-26T02:54:11;2.43;;;2.23;;
8893;SDS011;4483;48.622;9.230;2024-02-26T02:56:39;4.50;;;3.70;;
8893;SDS011;4483;48.622;9.230;2024-02-26T02:59:06;2.80;;;2.60;;
8893;SDS011;4483;48.622;9.230;2024-02-26T03:01:32;2.13;;;2.00;;
8893;SDS011;4483;48.622;9.230;2024-02-26T03:03:59;1.93;;;1.60;;
8893;SDS011;4483;48.622;9.230;2024-02-26T03:06:25;2.13;;;1.93;;
8893;SDS011;4483;48.622;9.230;2024-02-26T03:08:53;1.73;;;1.63;;
8893;SDS011;4483;48.622;9.230;2024-02-26T03:11:20;1.90;;;1.80;;
8893;SDS011;4483;48.622;9.230;2024-02-26T03:13:48;1.77;;;1.67;;
8893;SDS011;4483;48.622;9.230;2024-02-26T03:16:16;2.50;;;2.10;;
8893;SDS011;4483;48.622;9.230;2024-02-26T03:18:43;1.73;;;1.63;;
8893;SDS011;4483;48.622;9.230;2024-02-26T03:21:09;5.77;;;4.23;;
8893;SDS011;4483;48.622;9.230;2024-02-26T03:23:36;2.67;;;2.43;;
8893;SDS011;4483;48.622;9.230;2024-02-26T03:26:03;4.00;;;2.03;;
8893;SDS011;4483;48.622;9.230;2024-02-26T03:28:30;1.80;;;1.70;;
8893;SDS011;4483;48.622;9.230;2024-02-26T03:30:59;2.47;;;2.27;;
8893;SDS011;4483;48.622;9.230;2024-02-26T03:33:27;4.03;;;3.60;;
8893;SDS011;4483;48.622;9.230;2024-02-26T03:35:53;2.10;;;2.00;;
8893;SDS011;4483;48.622;9.230;2024-02-26T03:38:20;2.83;;;2.53;;
8893;SDS011;4483;48.622;9.230;2024-02-26T03:40:47;4.30;;;3.90;;
8893;SDS011;4483;48.622;9.230;2024-02-26T03:43:13;2.70;;;2.50;;
8893;SDS011;4483;48.622;9.230;2024-02-26T03:45:40;2.57;;;2.37;;
8893;SDS011;4483;48.622;9.230;2024-02-26T03:48:08;3.00;;;2.07;;
8893;SDS011;4483;48.622;9.230;2024-02-26T03:50:35;5.37;;;2.20;;
8893;SDS011;4483;48.622;9.230;2024-02-26T03:53:01;1.80;;;1.70;;
8893;SDS011;4483;48.622;9.230;2024-02-26T03:55:28;3.20;;;1.70;;
8893;SDS011;4483;48.622;9.230;2024-02-26T03:57:54;1.57;;;1.47;;
8893;SDS011;4483;48.622;9.230;2024-02-26T04:00:21;3.20;;;2.30;;
8893;SDS011;4483;48.622;9.230;2024-02-26T04:02:48;1.80;;;1.70;;
8893;SDS011;4483;48.622;9.230;2024-02-26T04:05:16;2.00;;;1.90;;
8893;SDS011;4483;48.622;9.230;2024-02-26T04:07:43;3.33;;;1.80;;
8893;SDS011;4483;48.622;9.230;2024-02-26T04:10:09;3.00;;;2.30;;
8893;SDS011;4483;48.622;9.230;2024-02-26T04:12:37;4.43;;;1.80;;
8893;SDS011;4483;48.622;9.230;2024-02-26T04:15:05;2.00;;;1.90;;
8893;SDS011;4483;48.622;9.230;2024-02-26T04:17:32;1.33;;;1.33;;
8893;SDS011;4483;48.622;9.230;2024-02-26T04:19:59;2.00;;;1.90;;
8893;SDS011;4483;48.622;9.230;2024-02-26T04:22:27;1.97;;;1.60;;
8893;SDS011;4483;48.622;9.230;2024-02-26T04:24:54;2.60;;;1.40;;
8893;SDS011;4483;48.622;9.230;2024-02-26T04:27:20;2.10;;;1.90;;
8893;SDS011;4483;48.622;9.230;2024-02-26T04:29:47;2.60;;;1.83;;
8893;SDS011;4483;48.622;9.230;2024-02-26T04:32:14;1.97;;;1.73;;
8893;SDS011;4483;48.622;9.230;2024-02-26T04:34:40;1.60;;;1.50;;
8893;SDS011;4483;48.622;9.230;2024-02-26T04:37:08;1.63;;;1.53;;
8893;SDS011;4483;48.622;9.230;2024-02-26T04:39:36;1.80;;;1.70;;
8893;SDS011;4483;48.622;9.230;2024-02-26T04:42:02;1.70;;;1.60;;
8893;SDS011;4483;48.622;9.230;2024-02-26T04:44:29;3.00;;;1.50;;
8893;SDS011;4483;48.622;9.230;2024-02-26T04:46:56;1.93;;;1.80;;
8893;SDS011;4483;48.622;9.230;2024-02-26T04:49:23;1.93;;;1.70;;
8893;SDS011;4483;48.622;9.230;2024-02-26T04:51:49;1.70;;;1.60;;
8893;SDS011;4483;48.622;9.230;2024-02-26T04:54:16;2.43;;;1.93;;
8893;SDS011;4483;48.622;9.230;2024-02-26T04:56:44;2.10;;;1.90;;
8893;SDS011;4483;48.622;9.230;2024-02-26T04:59:11;3.07;;;1.80;;
8893;SDS011;4483;48.622;9.230;2024-02-26T05:01:37;2.20;;;2.00;;
8893;SDS011;4483;48.622;9.230;2024-02-26T05:04:06;3.53;;;1.80;;
8893;SDS011;4483;48.622;9.230;2024-02-26T05:06:33;2.13;;;1.80;;
8893;SDS011;4483;48.622;9.230;2024-02-26T05:08:59;3.17;;;2.47;;
8893;SDS011;4483;48.622;9.230;2024-02-26T05:11:26;2.00;;;1.90;;
8893;SDS011;4483;48.622;9.230;2024-02-26T05:13:54;2.63;;;1.90;;
8893;SDS011;4483;48.622;9.230;2024-02-26T05:16:20;2.40;;;1.93;;
8893;SDS011;4483;48.622;9.230;2024-02-26T05:18:49;2.47;;;2.27;;
8893;SDS011;4483;48.622;9.230;2024-02-26T05:21:16;2.27;;;2.10;;
8893;SDS011;4483;48.622;9.230;2024-02-26T05:23:42;2.80;;;2.17;;
8893;SDS011;4483;48.622;9.230;2024-02-26T05:26:10;2.13;;;1.93;;
8893;SDS011;4483;48.622;9.230;2024-02-26T05:28:37;1.80;;;1.70;;
8893;SDS011;4483;48.622;9.230;2024-02-26T05:31:05;3.13;;;2.63;;
8893;SDS011;4483;48.622;9.230;2024-02-26T05:33:32;2.77;;;2.10;;
8893;SDS011;4483;48.622;9.230;2024-02-26T05:35:59;1.50;;;1.40;;
8893;SDS011;4483;48.622;9.230;2024-02-26T05:38:29;2.40;;;1.60;;
8893;SDS011;4483;48.622;9.230;2024-02-26T05:40:56;1.73;;;1.63;;
8893;SDS011;4483;48.622;9.230;2024-02-26T05:43:23;3.17;;;2.03;;
8893;SDS011;4483;48.622;9.230;2024-02-26T05:45:50;2.57;;;1.97;;
8893;SDS011;4483;48.622;9.230;2024-02-26T05:48:18;2.00;;;1.70;;
8893;SDS011;4483;48.622;9.230;2024-02-26T05:50:45;2.10;;;2.00;;
8893;SDS011;4483;48.622;9.230;2024-02-26T05:53:13;5.90;;;5.00;;
8893;SDS011;4483;48.622;9.230;2024-02-26T05:55:39;2.93;;;2.67;;
8893;SDS011;4483;48.622;9.230;2024-02-26T05:58:06;3.33;;;2.37;;
8893;SDS011;4483;48.622;9.230;2024-02-26T06:00:32;2.30;;;2.10;;
8893;SDS011;4483;48.622;9.230;2024-02-26T06:02:59;2.00;;;1.80;;
8893;SDS011;4483;48.622;9.230;2024-02-26T06:05:28;1.90;;;1.80;;
8893;SDS011;4483;48.622;9.230;2024-02-26T06:07:55;2.30;;;2.10;;
8893;SDS011;4483;48.622;9.230;2024-02-26T06:10:21;2.03;;;1.93;;
8893;SDS011;4483;48.622;9.230;2024-02-26T06:12:48;2.47;;;2.27;;
8893;SDS011;4483;48.622;9.230;2024-02-26T06:15:15;2.13;;;2.00;;
8893;SDS011;4483;48.622;9.230;2024-02-26T06:17:41;2.20;;;1.90;;
8893;SDS011;4483;48.622;9.230;2024-02-26T06:20:08;2.00;;;1.90;;
8893;SDS011;4483;48.622;9.230;2024-02-26T06:22:39;2.50;;;1.77;;
8893;SDS011;4483;48.622;9.230;2024-02-26T06:25:06;4.83;;;2.10;;
8893;SDS011;4483;48.622;9.230;2024-02-26T06:27:34;1.73;;;1.63;;
8893;SDS011;4483;48.622;9.230;2024-02-26T06:30:00;2.60;;;1.70;;
8893;SDS011;4483;48.622;9.230;2024-02-26T06:32:27;2.00;;;1.90;;
8893;SDS011;4483;48.622;9.230;2024-02-26T06:34:54;2.33;;;2.17;;
8893;SDS011;4483;48.622;9.230;2024-02-26T06:37:21;2.83;;;1.80;;
8893;SDS011;4483;48.622;9.230;2024-02-26T06:39:49;2.60;;;1.90;;
8893;SDS011;4483;48.622;9.230;2024-02-26T06:42:17;1.73;;;1.63;;
8893;SDS011;4483;48.622;9.230;2024-02-26T06:44:43;2.00;;;1.80;;
8893;SDS011;4483;48.622;9.230;2024-02-26T06:47:10;1.90;;;1.80;;
8893;SDS011;4483;48.622;9.230;2024-02-26T06:49:36;1.90;;;1.80;;
8893;SDS011;4483;48.622;9.230;2024-02-26T06:52:03;1.67;;;1.57;;
8893;SDS011;4483;48.622;9.230;2024-02-26T06:54:31;2.50;;;2.00;;
8893;SDS011;4483;48.622;9.230;2024-02-26T06:56:59;1.70;;;1.60;;
8893;SDS011;4483;48.622;9.230;2024-02-26T06:59:25;1.70;;;1.50;;
8893;SDS011;4483;48.622;9.230;2024-02-26T07:01:52;1.77;;;1.63;;
8893;SDS011;4483;48.622;9.230;2024-02-26T07:04:19;1.97;;;1.87;;
8893;SDS011;4483;48.622;9.230;2024-02-26T07:06:46;3.87;;;1.97;;
8893;SDS011;4483;48.622;9.230;2024-02-26T07:09:13;1.97;;;1.87;;
8893;SDS011;4483;48.622;9.230;2024-02-26T07:11:40;1.70;;;1.60;;
8893;SDS011;4483;48.622;9.230;2024-02-26T07:14:10;2.93;;;2.20;;
8893;SDS011;4483;48.622;9.230;2024-02-26T07:16:38;2.07;;;1.97;;
8893;SDS011;4483;48.622;9.230;2024-02-26T07:19:04;1.70;;;1.60;;
8893;SDS011;4483;48.622;9.230;2024-02-26T07:21:31;1.63;;;1.53;;
8893;SDS011;4483;48.622;9.230;2024-02-26T07:23:58;1.83;;;1.70;;
8893;SDS011;4483;48.622;9.230;2024-02-26T07:26:25;2.70;;;1.80;;
8893;SDS011;4483;48.622;9.230;2024-02-26T07:28:52;3.37;;;1.60;;
8893;SDS011;4483;48.622;9.230;2024-02-26T07:31:20;2.03;;;1.90;;
8893;SDS011;4483;48.622;9.230;2024-02-26T07:33:46;2.10;;;1.60;;
8893;SDS011;4483;48.622;9.230;2024-02-26T07:36:13;3.43;;;1.87;;
8893;SDS011;4483;48.622;9.230;2024-02-26T07:38:39;1.70;;;1.60;;
8893;SDS011;4483;48.622;9.230;2024-02-26T07:41:06;1.60;;;1.50;;
8893;SDS011;4483;48.622;9.230;2024-02-26T07:43:33;1.57;;;1.43;;
8893;SDS011;4483;48.622;9.230;2024-02-26T07:46:00;2.90;;;1.70;;
8893;SDS011;4483;48.622;9.230;2024-02-26T07:48:28;3.03;;;1.80;;
8893;SDS011;4483;48.622;9.230;2024-02-26T07:50:54;4.67;;;1.60;;
8893;SDS011;4483;48.622;9.230;2024-02-26T07:53:21;1.90;;;1.47;;
8893;SDS011;4483;48.622;9.230;2024-02-26T07:55:48;1.77;;;1.60;;
8893;SDS011;4483;48.622;9.230;2024-02-26T07:58:14;2.20;;;2.00;;
8893;SDS011;4483;48.622;9.230;2024-02-26T08:00:41;4.00;;;1.60;;
8893;SDS011;4483;48.622;9.230;2024-02-26T08:03:08;2.20;;;1.53;;
8893;SDS011;4483;48.622;9.230;2024-02-26T08:05:37;2.43;;;1.50;;
8893;SDS011;4483;48.622;9.230;2024-02-26T08:08:05;1.70;;;1.60;;
8893;SDS011;4483;48.622;9.230;2024-02-26T08:10:32;1.93;;;1.83;;
8893;SDS011;4483;48.622;9.230;2024-02-26T08:12:59;1.50;;;1.50;;
8893;SDS011;4483;48.622;9.230;2024-02-26T08:15:30;2.80;;;1.80;;
8893;SDS011;4483;48.622;9.230;2024-02-26T08:17:57;2.33;;;1.90;;
8893;SDS011;4483;48.622;9.230;2024-02-26T08:20:25;3.83;;;2.17;;
8893;SDS011;4483;48.622;9.230;2024-02-26T08:22:53;6.80;;;3.13;;
8893;SDS011;4483;48.622;9.230;2024-02-26T08:25:20;2.97;;;2.40;;
8893;SDS011;4483;48.622;9.230;2024-02-26T08:27:46;3.20;;;2.63;;
8893;SDS011;4483;48.622;9.230;2024-02-26T08:30:13;6.40;;;2.57;;
8893;SDS011;4483;48.622;9.230;2024-02-26T08:32:42;3.07;;;2.27;;
8893;SDS011;4483;48.622;9.230;2024-02-26T08:35:09;3.70;;;2.50;;
8893;SDS011;4483;48.622;9.230;2024-02-26T08:37:36;6.23;;;2.90;;
8893;SDS011;4483;48.622;9.230;2024-02-26T08:40:04;3.57;;;2.57;;
8893;SDS011;4483;48.622;9.230;2024-02-26T08:42:32;5.67;;;2.67;;
8893;SDS011;4483;48.622;9.230;2024-02-26T08:44:59;3.13;;;2.53;;
8893;SDS011;4483;48.622;9.230;2024-02-26T08:47:26;3.80;;;3.23;;
8893;SDS011;4483;48.622;9.230;2024-02-26T08:49:53;2.80;;;2.60;;
8893;SDS011;4483;48.622;9.230;2024-02-26T08:52:19;3.47;;;2.17;;
8893;SDS011;4483;48.622;9.230;2024-02-26T08:54:46;2.50;;;2.30;;
8893;SDS011;4483;48.622;9.230;2024-02-26T08:57:14;3.00;;;2.70;;
8893;SDS011;4483;48.622;9.230;2024-02-26T08:59:41;3.23;;;2.77;;
8893;SDS011;4483;48.622;9.230;2024-02-26T09:02:09;4.97;;;2.73;;
8893;SDS011;4483;48.622;9.230;2024-02-26T09:04:35;2.67;;;2.47;;
8893;SDS011;4483;48.622;9.230;2024-02-26T09:07:02;4.83;;;3.50;;
8893;SDS011;4483;48.622;9.230;2024-02-26T09:09:29;4.33;;;3.10;;
8893;SDS011;4483;48.622;9.230;2024-02-26T09:11:55;4.77;;;2.60;;
8893;SDS011;4483;48.622;9.230;2024-02-26T09:14:23;3.50;;;2.20;;
8893;SDS011;4483;48.622;9.230;2024-02-26T09:16:50;3.20;;;2.30;;
8893;SDS011;4483;48.622;9.230;2024-02-26T09:19:17;2.83;;;2.20;;
8893;SDS011;4483;48.622;9.230;2024-02-26T09:21:44;6.70;;;2.40;;
8893;SDS011;4483;48.622;9.230;2024-02-26T09:24:11;5.17;;;2.13;;
8893;SDS011;4483;48.622;9.230;2024-02-26T09:26:38;5.40;;;2.90;;
8893;SDS011;4483;48.622;9.230;2024-02-26T09:29:04;5.07;;;2.30;;
8893;SDS011;4483;48.622;9.230;2024-02-26T09:31:34;3.53;;;2.40;;
8893;SDS011;4483;48.622;9.230;2024-02-26T09:34:01;2.73;;;2.43;;
8893;SDS011;4483;48.622;9.230;2024-02-26T09:36:27;2.50;;;2.30;;
8893;SDS011;4483;48.622;9.230;2024-02-26T09:38:54;4.20;;;2.63;;
8893;SDS011;4483;48.622;9.230;2024-02-26T09:41:21;2.57;;;2.37;;
8893;SDS011;4483;48.622;9.230;2024-02-26T09:43:48;2.33;;;2.13;;
8893;SDS011;4483;48.622;9.230;2024-02-26T09:46:15;3.30;;;2.20;;
8893;SDS011;4483;48.622;9.230;2024-02-26T09:48:46;2.37;;;2.17;;
8893;SDS011;4483;48.622;9.230;2024-02-26T09:51:13;5.97;;;2.10;;
8893;SDS011;4483;48.622;9.230;2024-02-26T09:53:41;2.00;;;1.87;;
8893;SDS011;4483;48.622;9.230;2024-02-26T09:56:11;2.10;;;1.90;;
8893;SDS011;4483;48.622;9.230;2024-02-26T09:58:37;3.07;;;2.73;;
8893;SDS011;4483;48.622;9.230;2024-02-26T10:01:06;3.23;;;2.63;;
8893;SDS011;4483;48.622;9.230;2024-02-26T10:03:38;1.97;;;1.80;;
8893;SDS011;4483;48.622;9.230;2024-02-26T10:06:08;2.97;;;2.00;;
8893;SDS011;4483;48.622;9.230;2024-02-26T10:08:35;3.00;;;2.30;;
8893;SDS011;4483;48.622;9.230;2024-02-26T10:11:02;3.70;;;2.10;;
8893;SDS011;4483;48.622;9.230;2024-02-26T10:13:29;3.87;;;2.07;;
8893;SDS011;4483;48.622;9.230;2024-02-26T10:15:56;1.93;;;1.83;;
8893;SDS011;4483;48.622;9.230;2024-02-26T10:18:23;2.67;;;2.40;;
8893;SDS011;4483;48.622;9.230;2024-02-26T10:20:58;2.43;;;2.23;;
8893;SDS011;4483;48.622;9.230;2024-02-26T10:23:27;5.43;;;1.90;;
8893;SDS011;4483;48.622;9.230;2024-02-26T10:25:54;4.57;;;2.17;;
8893;SDS011;4483;48.622;9.230;2024-02-26T10:28:22;2.20;;;2.03;;
8893;SDS011;4483;48.622;9.230;2024-02-26T10:30:50;2.50;;;2.20;;
8893;SDS011;4483;48.622;9.230;2024-02-26T10:33:17;2.03;;;1.90;;
8893;SDS011;4483;48.622;9.230;2024-02-26T10:35:45;2.23;;;2.00;;
8893;SDS011;4483;48.622;9.230;2024-02-26T10:38:12;2.23;;;2.00;;
8893;SDS011;4483;48.622;9.230;2024-02-26T10:40:43;2.30;;;2.20;;
8893;SDS011;4483;48.622;9.230;2024-02-26T10:43:10;2.37;;;2.17;;
8893;SDS011;4483;48.622;9.230;2024-02-26T10:45:38;2.20;;;2.00;;
8893;SDS011;4483;48.622;9.230;2024-02-26T10:48:08;2.30;;;2.10;;
8893;SDS011;4483;48.622;9.230;2024-02-26T10:50:37;1.70;;;1.60;;
8893;SDS011;4483;48.622;9.230;2024-02-26T10:53:05;2.03;;;1.50;;
8893;SDS011;4483;48.622;9.230;2024-02-26T10:55:40;2.50;;;1.93;;
8893;SDS011;4483;48.622;9.230;2024-02-26T10:58:08;1.63;;;1.60;;
8893;SDS011;4483;48.622;9.230;2024-02-26T11:00:36;1.77;;;1.67;;
8893;SDS011;4483;48.622;9.230;2024-02-26T11:03:04;1.83;;;1.73;;
8893;SDS011;4483;48.622;9.230;2024-02-26T11:05:32;1.83;;;1.73;;
8893;SDS011;4483;48.622;9.230;2024-02-26T11:08:00;2.07;;;1.83;;
8893;SDS011;4483;48.622;9.230;2024-02-26T11:10:27;3.40;;;1.57;;
8893;SDS011;4483;48.622;9.230;2024-02-26T11:12:56;1.77;;;1.67;;
8893;SDS011;4483;48.622;9.230;2024-02-26T11:15:27;1.50;;;1.40;;
8893;SDS011;4483;48.622;9.230;2024-02-26T11:17:57;6.17;;;1.70;;
8893;SDS011;4483;48.622;9.230;2024-02-26T11:20:24;1.60;;;1.50;;
8893;SDS011;4483;48.622;9.230;2024-02-26T11:22:54;5.10;;;1.60;;
8893;SDS011;4483;48.622;9.230;2024-02-26T11:25:21;2.30;;;1.90;;
8893;SDS011;4483;48.622;9.230;2024-02-26T11:27:49;3.80;;;1.80;;
8893;SDS011;4483;48.622;9.230;2024-02-26T11:30:22;4.00;;;1.60;;
8893;SDS011;4483;48.622;9.230;2024-02-26T11:32:52;1.80;;;1.70;;
8893;SDS011;4483;48.622;9.230;2024-02-26T11:35:19;3.50;;;1.80;;
8893;SDS011;4483;48.622;9.230;2024-02-26T11:37:53;1.77;;;1.67;;
8893;SDS011;4483;48.622;9.230;2024-02-26T11:40:21;1.63;;;1.50;;
8893;SDS011;4483;48.622;9.230;2024-02-26T11:42:48;3.37;;;1.57;;
8893;SDS011;4483;48.622;9.230;2024-02-26T11:48:25;1.93;;;1.83;;
8893;SDS011;4483;48.622;9.230;2024-02-26T11:50:55;2.37;;;1.90;;
8893;SDS011;4483;48.622;9.230;2024-02-26T11:53:24;1.90;;;1.80;;
8893;SDS011;4483;48.622;9.230;2024-02-26T11:58:46;2.10;;;1.70;;
8893;SDS011;4483;48.622;9.230;2024-02-26T12:04:05;1.70;;;1.60;;
8893;SDS011;4483;48.622;9.230;2024-02-26T12:06:39;1.53;;;1.43;;
8893;SDS011;4483;48.622;9.230;2024-02-26T12:09:07;2.23;;;1.60;;
8893;SDS011;4483;48.622;9.230;2024-02-26T12:11:37;1.67;;;1.57;;
8893;SDS011;4483;48.622;9.230;2024-02-26T12:14:05;1.67;;;1.50;;
8893;SDS011;4483;48.622;9.230;2024-02-26T12:16:35;5.30;;;1.53;;
8893;SDS011;4483;48.622;9.230;2024-02-26T12:19:03;3.60;;;1.87;;
8893;SDS011;4483;48.622;9.230;2024-02-26T12:21:33;4.97;;;1.73;;
8893;SDS011;4483;48.622;9.230;2024-02-26T12:24:10;7.53;;;1.73;;
8893;SDS011;4483;48.622;9.230;2024-02-26T12:26:38;5.03;;;1.80;;
8893;SDS011;4483;48.622;9.230;2024-02-26T12:29:05;1.87;;;1.73;;
8893;SDS011;4483;48.622;9.230;2024-02-26T12:31:32;1.90;;;1.47;;
8893;SDS011;4483;48.622;9.230;2024-02-26T12:34:01;1.80;;;1.70;;
8893;SDS011;4483;48.622;9.230;2024-02-26T12:36:30;1.93;;;1.50;;
8893;SDS011;4483;48.622;9.230;2024-02-26T12:38:57;1.40;;;1.40;;
8893;SDS011;4483;48.622;9.230;2024-02-26T12:41:25;2.30;;;1.53;;
8893;SDS011;4483;48.622;9.230;2024-02-26T12:43:53;1.43;;;1.40;;
8893;SDS011;4483;48.622;9.230;2024-02-26T12:46:19;1.57;;;1.47;;
8893;SDS011;4483;48.622;9.230;2024-02-26T12:48:46;1.40;;;1.30;;
8893;SDS011;4483;48.622;9.230;2024-02-26T12:51:14;1.87;;;1.70;;
8893;SDS011;4483;48.622;9.230;2024-02-26T12:53:44;1.80;;;1.70;;
8893;SDS011;4483;48.622;9.230;2024-02-26T12:56:12;1.13;;;1.13;;
8893;SDS011;4483;48.622;9.230;2024-02-26T12:58:38;1.23;;;1.20;;
8893;SDS011;4483;48.622;9.230;2024-02-26T13:01:06;1.30;;;1.30;;
8893;SDS011;4483;48.622;9.230;2024-02-26T13:03:33;1.27;;;1.17;;
8893;SDS011;4483;48.622;9.230;2024-02-26T13:06:02;1.43;;;1.33;;
8893;SDS011;4483;48.622;9.230;2024-02-26T13:08:31;1.90;;;1.20;;
8893;SDS011;4483;48.622;9.230;2024-02-26T13:10:59;1.43;;;1.20;;
8893;SDS011;4483;48.622;9.230;2024-02-26T13:13:26;1.10;;;1.10;;
8893;SDS011;4483;48.622;9.230;2024-02-26T13:16:01;1.07;;;1.00;;
8893;SDS011;4483;48.622;9.230;2024-02-26T13:18:28;1.60;;;1.10;;
8893;SDS011;4483;48.622;9.230;2024-02-26T13:21:05;1.13;;;1.10;;
8893;SDS011;4483;48.622;9.230;2024-02-26T13:23:33;1.60;;;1.10;;
8893;SDS011;4483;48.622;9.230;2024-02-26T13:26:01;2.23;;;1.00;;
8893;SDS011;4483;48.622;9.230;2024-02-26T13:28:28;0.80;;;0.80;;
8893;SDS011;4483;48.622;9.230;2024-02-26T13:30:55;0.80;;;0.80;;
8893;SDS011;4483;48.622;9.230;2024-02-26T13:33:22;0.70;;;0.70;;
8893;SDS011;4483;48.622;9.230;2024-02-26T13:35:49;0.87;;;0.87;;
8893;SDS011;4483;48.622;9.230;2024-02-26T13:38:16;0.70;;;0.70;;
8893;SDS011;4483;48.622;9.230;2024-02-26T13:40:43;0.90;;;0.90;;
8893;SDS011;4483;48.622;9.230;2024-02-26T13:43:11;0.80;;;0.80;;
8893;SDS011;4483;48.622;9.230;2024-02-26T13:45:37;0.80;;;0.80;;
8893;SDS011;4483;48.622;9.230;2024-02-26T13:48:05;0.80;;;0.80;;
8893;SDS011;4483;48.622;9.230;2024-02-26T13:50:32;1.00;;;1.00;;
8893;SDS011;4483;48.622;9.230;2024-02-26T13:52:59;0.97;;;0.90;;
8893;SDS011;4483;48.622;9.230;2024-02-26T13:55:26;1.10;;;1.00;;
8893;SDS011;4483;48.622;9.230;2024-02-26T13:57:53;1.27;;;1.10;;
8893;SDS011;4483;48.622;9.230;2024-02-26T14:00:21;2.43;;;1.00;;
8893;SDS011;4483;48.622;9.230;2024-02-26T14:02:49;1.53;;;1.43;;
8893;SDS011;4483;48.622;9.230;2024-02-26T14:05:16;3.90;;;1.30;;
8893;SDS011;4483;48.622;9.230;2024-02-26T14:07:43;1.00;;;1.00;;
8893;SDS011;4483;48.622;9.230;2024-02-26T14:10:10;1.30;;;1.20;;
8893;SDS011;4483;48.622;9.230;2024-02-26T14:12:38;1.23;;;1.20;;
8893;SDS011;4483;48.622;9.230;2024-02-26T14:15:06;3.90;;;1.40;;
8893;SDS011;4483;48.622;9.230;2024-02-26T14:17:34;1.20;;;1.20;;
8893;SDS011;4483;48.622;9.230;2024-02-26T14:20:01;1.13;;;1.10;;
8893;SDS011;4483;48.622;9.230;2024-02-26T14:22:28;3.33;;;1.20;;
8893;SDS011;4483;48.622;9.230;2024-02-26T14:24:56;1.20;;;1.10;;
8893;SDS011;4483;48.622;9.230;2024-02-26T14:27:22;1.83;;;1.10;;
8893;SDS011;4483;48.622;9.230;2024-02-26T14:29:49;1.83;;;1.07;;
8893;SDS011;4483;48.622;9.230;2024-02-26T14:32:16;1.07;;;1.07;;
8893;SDS011;4483;48.622;9.230;2024-02-26T14:34:44;1.60;;;1.20;;
8893;SDS011;4483;48.622;9.230;2024-02-26T14:37:10;1.13;;;1.10;;
8893;SDS011;4483;48.622;9.230;2024-02-26T14:39:37;1.10;;;1.10;;
8893;SDS011;4483;48.622;9.230;2024-02-26T14:42:04;1.50;;;1.40;;
8893;SDS011;4483;48.622;9.230;2024-02-26T14:44:31;1.50;;;1.05;;
8893;SDS011;4483;48.622;9.230;2024-02-26T14:46:58;1.00;;;1.00;;
8893;SDS011;4483;48.622;9.230;2024-02-26T14:49:24;1.65;;;1.30;;
8893;SDS011;4483;48.622;9.230;2024-02-26T14:51:52;3.22;;;1.30;;
8893;SDS011;4483;48.622;9.230;2024-02-26T14:54:19;1.20;;;1.20;;
8893;SDS011;4483;48.622;9.230;2024-02-26T14:56:46;1.40;;;1.30;;
8893;SDS011;4483;48.622;9.230;2024-02-26T14:59:13;1.10;;;1.10;;
8893;SDS011;4483;48.622;9.230;2024-02-26T15:01:39;3.90;;;1.30;;
8893;SDS011;4483;48.622;9.230;2024-02-26T15:04:06;2.28;;;1.40;;
8893;SDS011;4483;48.622;9.230;2024-02-26T15:06:32;1.20;;;1.20;;
8893;SDS011;4483;48.622;9.230;2024-02-26T15:09:01;1.50;;;1.40;;
8893;SDS011;4483;48.622;9.230;2024-02-26T15:11:29;1.37;;;1.37;;
8893;SDS011;4483;48.622;9.230;2024-02-26T15:13:56;1.95;;;1.70;;
8893;SDS011;4483;48.622;9.230;2024-02-26T15:16:22;1.95;;;1.40;;
8893;SDS011;4483;48.622;9.230;2024-02-26T15:18:49;2.58;;;1.38;;
8893;SDS011;4483;48.622;9.230;2024-02-26T15:21:16;2.50;;;1.67;;
8893;SDS011;4483;48.622;9.230;2024-02-26T15:23:42;1.50;;;1.40;;
8893;SDS011;4483;48.622;9.230;2024-02-26T15:26:11;3.23;;;1.57;;